createdAt,value
2022-11-15T00:02:44.540Z,22.40
2022-11-15T00:05:48.945Z,23.93
2022-11-15T00:08:52.498Z,23.23
2022-11-15T00:11:56.138Z,24.47
2022-11-15T00:14:59.661Z,22.97
2022-11-15T00:18:05.426Z,23.17
2022-11-15T00:21:13.562Z,25.60
2022-11-15T00:24:17.129Z,21.03
2022-11-15T00:27:20.714Z,23.67
2022-11-15T00:30:24.380Z,27.87
2022-11-15T00:33:29.663Z,26.23
2022-11-15T00:36:36.454Z,19.87
2022-11-15T00:39:40.018Z,24.47
2022-11-15T00:42:44.287Z,23.10
2022-11-15T00:45:47.825Z,24.20
2022-11-15T00:48:52.759Z,25.97
2022-11-15T00:51:56.268Z,22.77
2022-11-15T00:54:59.816Z,23.37
2022-11-15T00:58:03.422Z,24.93
2022-11-15T01:01:12.534Z,24.13
2022-11-15T01:04:18.030Z,22.27
2022-11-15T01:07:21.742Z,23.40
2022-11-15T01:10:26.921Z,19.73
2022-11-15T01:13:33.888Z,22.77
2022-11-15T01:16:37.655Z,22.37
2022-11-15T01:19:42.618Z,23.57
2022-11-15T01:22:46.193Z,22.83
2022-11-15T01:25:49.771Z,20.73
2022-11-15T01:28:53.772Z,23.10
2022-11-15T01:31:57.578Z,24.00
2022-11-15T01:35:02.587Z,24.27
2022-11-15T01:38:06.130Z,22.70
2022-11-15T01:41:17.022Z,22.00
2022-11-15T01:44:48.326Z,21.33
2022-11-15T01:47:56.233Z,20.97
2022-11-15T01:51:03.562Z,20.83
2022-11-15T01:54:12.204Z,23.20
2022-11-15T01:57:16.458Z,21.50
2022-11-15T02:00:20.320Z,23.50
2022-11-15T02:03:33.868Z,26.80
2022-11-15T02:06:40.451Z,22.10
2022-11-15T02:09:45.418Z,24.00
2022-11-15T02:12:50.523Z,22.23
2022-11-15T02:16:07.824Z,24.60
2022-11-15T02:19:38.697Z,25.67
2022-11-15T02:23:06.562Z,25.60
2022-11-15T02:26:55.668Z,25.07
2022-11-15T02:30:36.587Z,24.17
2022-11-15T02:33:52.386Z,22.93
2022-11-15T02:37:06.588Z,22.23
2022-11-15T02:40:23.284Z,23.60
2022-11-15T02:43:57.288Z,26.47
2022-11-15T02:47:14.627Z,21.53
2022-11-15T02:50:23.381Z,25.73
2022-11-15T02:53:28.340Z,24.33
2022-11-15T02:56:32.156Z,25.57
2022-11-15T03:00:05.463Z,23.17
2022-11-15T03:03:37.480Z,21.23
2022-11-15T03:06:53.212Z,22.17
2022-11-15T03:10:07.717Z,25.23
2022-11-15T03:13:26.893Z,23.70
2022-11-15T03:16:39.006Z,20.97
2022-11-15T03:19:49.495Z,22.43
2022-11-15T03:22:56.568Z,23.37
2022-11-15T03:26:02.273Z,24.33
2022-11-15T03:29:11.614Z,23.43
2022-11-15T03:32:20.637Z,20.97
2022-11-15T03:35:29.304Z,25.13
2022-11-15T03:38:36.994Z,24.33
2022-11-15T03:41:50.294Z,25.03
2022-11-15T03:45:04.577Z,23.03
2022-11-15T03:48:16.913Z,21.53
2022-11-15T03:51:22.871Z,22.67
2022-11-15T03:54:26.494Z,22.27
2022-11-15T03:57:30.210Z,22.87
2022-11-15T04:00:34.178Z,25.37
2022-11-15T04:03:37.907Z,23.93
2022-11-15T04:06:42.958Z,23.23
2022-11-15T04:10:04.598Z,22.67
2022-11-15T04:13:08.236Z,23.73
2022-11-15T04:16:11.767Z,22.07
2022-11-15T04:19:33.015Z,24.30
2022-11-15T04:22:55.217Z,22.80
2022-11-15T04:26:03.639Z,21.83
2022-11-15T04:29:24.519Z,21.93
2022-11-15T04:32:28.116Z,18.97
2022-11-15T04:35:32.508Z,21.07
2022-11-15T04:38:38.592Z,22.93
2022-11-15T04:41:42.187Z,22.37
2022-11-15T04:44:45.777Z,22.07
2022-11-15T04:47:49.952Z,20.83
2022-11-15T04:50:53.662Z,22.87
2022-11-15T04:53:58.639Z,22.77
2022-11-15T04:57:02.278Z,21.23
2022-11-15T05:00:09.821Z,23.67
2022-11-15T05:03:31.439Z,19.30
2022-11-15T05:06:35.386Z,20.97
2022-11-15T05:09:40.385Z,18.17
2022-11-15T05:12:44.074Z,19.20
2022-11-15T05:15:49.443Z,20.07
2022-11-15T05:18:54.491Z,18.43
2022-11-15T05:21:58.114Z,16.17
2022-11-15T05:25:03.027Z,22.43
2022-11-15T05:28:07.135Z,21.10
2022-11-15T05:31:13.485Z,17.17
2022-11-15T05:34:18.349Z,15.80
2022-11-15T05:37:21.986Z,19.10
2022-11-15T05:40:27.464Z,19.23
2022-11-15T05:43:37.162Z,14.73
2022-11-15T05:46:44.158Z,17.80
2022-11-15T05:49:52.938Z,16.33
2022-11-15T05:53:11.192Z,16.13
2022-11-15T05:56:17.247Z,15.53
2022-11-15T05:59:21.956Z,16.60
2022-11-15T06:02:25.630Z,16.53
2022-11-15T06:05:29.192Z,16.47
2022-11-15T06:08:33.256Z,16.57
2022-11-15T06:11:38.430Z,16.33
2022-11-15T06:14:42.525Z,19.30
2022-11-15T06:17:46.277Z,15.17
2022-11-15T06:20:49.982Z,18.13
2022-11-15T06:24:01.344Z,15.93
2022-11-15T06:27:06.955Z,18.07
2022-11-15T06:30:12.186Z,15.43
2022-11-15T06:33:15.950Z,17.87
2022-11-15T06:36:19.829Z,15.37
2022-11-15T06:39:23.492Z,18.33
2022-11-15T06:42:28.503Z,19.83
2022-11-15T06:45:33.097Z,17.87
2022-11-15T06:48:38.256Z,18.93
2022-11-15T06:51:41.867Z,17.80
2022-11-15T06:54:45.393Z,17.23
2022-11-15T06:57:52.251Z,17.53
2022-11-15T07:00:56.330Z,17.47
2022-11-15T07:04:00.111Z,15.83
2022-11-15T07:07:03.721Z,17.60
2022-11-15T07:10:09.842Z,16.50
2022-11-15T07:13:14.809Z,15.57
2022-11-15T07:16:18.428Z,17.20
2022-11-15T07:19:22.962Z,16.23
2022-11-15T07:22:27.053Z,15.53
2022-11-15T07:25:30.873Z,15.33
2022-11-15T07:28:36.805Z,16.53
2022-11-15T07:31:41.189Z,14.67
2022-11-15T07:34:46.265Z,16.43
2022-11-15T07:37:57.192Z,17.90
2022-11-15T07:41:03.440Z,16.47
2022-11-15T07:44:08.681Z,15.60
2022-11-15T07:47:12.376Z,15.43
2022-11-15T07:50:16.172Z,17.93
2022-11-15T07:53:20.071Z,14.83
2022-11-15T07:56:23.722Z,13.47
2022-11-15T07:59:29.372Z,19.20
2022-11-15T08:02:34.233Z,16.10
2022-11-15T08:05:39.963Z,17.63
2022-11-15T08:08:43.723Z,16.30
2022-11-15T08:11:47.351Z,18.20
2022-11-15T08:14:52.490Z,15.37
2022-11-15T08:17:57.753Z,16.73
2022-11-15T08:21:03.237Z,19.07
2022-11-15T08:24:08.001Z,14.83
2022-11-15T08:27:15.992Z,17.67
2022-11-15T08:30:21.575Z,14.20
2022-11-15T08:33:25.782Z,14.70
2022-11-15T08:36:36.886Z,16.87
2022-11-15T08:39:45.302Z,11.93
2022-11-15T08:42:49.572Z,13.97
2022-11-15T08:45:57.487Z,14.93
2022-11-15T08:49:01.165Z,12.60
2022-11-15T08:52:05.099Z,14.27
2022-11-15T08:55:10.190Z,16.30
2022-11-15T08:58:13.866Z,12.33
2022-11-15T09:01:21.793Z,15.17
2022-11-15T09:04:26.140Z,11.70
2022-11-15T09:07:30.966Z,14.20
2022-11-15T09:10:34.637Z,11.53
2022-11-15T09:13:39.166Z,13.27
2022-11-15T09:16:44.110Z,13.13
2022-11-15T09:19:47.692Z,10.13
2022-11-15T09:22:51.346Z,9.37
2022-11-15T09:26:00.761Z,11.47
2022-11-15T09:29:04.906Z,12.50
2022-11-15T09:32:10.003Z,11.77
2022-11-15T09:35:14.138Z,10.43
2022-11-15T09:38:17.995Z,17.03
2022-11-15T09:42:00.571Z,11.50
2022-11-15T09:45:20.219Z,13.63
2022-11-15T09:48:54.293Z,10.33
2022-11-15T09:51:58.468Z,9.27
2022-11-15T09:55:02.223Z,10.03
2022-11-15T09:58:19.153Z,13.77
2022-11-15T10:01:41.595Z,13.73
2022-11-15T10:04:46.719Z,10.73
2022-11-15T10:08:04.123Z,10.50
2022-11-15T10:14:38.252Z,10.00
2022-11-15T10:18:19.206Z,14.10
2022-11-15T10:21:42.743Z,11.43
2022-11-15T10:24:49.063Z,9.63
2022-11-15T10:27:59.382Z,9.80
2022-11-15T10:31:03.702Z,8.10
2022-11-15T10:34:16.118Z,8.23
2022-11-15T10:37:31.990Z,11.20
2022-11-15T10:40:36.152Z,9.80
2022-11-15T10:43:39.831Z,9.13
2022-11-15T10:46:48.028Z,7.37
2022-11-15T10:50:05.478Z,8.90
2022-11-15T10:53:24.610Z,7.27
2022-11-15T10:56:29.425Z,6.43
2022-11-15T10:59:39.301Z,7.93
2022-11-15T11:02:59.873Z,6.80
2022-11-15T11:06:13.277Z,7.63
2022-11-15T11:09:32.538Z,7.07
2022-11-15T11:12:37.838Z,8.60
2022-11-15T11:15:47.482Z,5.83
2022-11-15T11:19:00.885Z,6.30
2022-11-15T11:22:18.321Z,7.07
2022-11-15T11:25:36.339Z,5.60
2022-11-15T11:28:52.731Z,8.30
2022-11-15T11:32:09.982Z,7.80
2022-11-15T11:35:22.032Z,9.00
2022-11-15T11:38:50.248Z,5.33
2022-11-15T11:42:13.027Z,7.77
2022-11-15T11:45:29.004Z,5.73
2022-11-15T11:48:44.772Z,6.13
2022-11-15T11:51:56.999Z,8.77
2022-11-15T11:55:16.292Z,5.77
2022-11-15T11:58:32.328Z,5.97
2022-11-15T12:01:44.044Z,6.53
2022-11-15T12:04:54.691Z,5.97
2022-11-15T12:08:07.326Z,7.00
2022-11-15T12:11:19.693Z,7.50
2022-11-15T12:14:34.759Z,7.40
2022-11-15T12:17:40.714Z,7.33
2022-11-15T12:21:03.275Z,6.90
2022-11-15T12:24:17.504Z,4.50
2022-11-15T12:27:35.632Z,4.73
2022-11-15T12:30:53.086Z,5.47
2022-11-15T12:34:04.393Z,4.20
2022-11-15T12:37:48.388Z,4.70
2022-11-15T12:41:18.108Z,7.20
2022-11-15T12:45:01.237Z,6.67
2022-11-15T12:49:03.874Z,9.07
2022-11-15T12:52:10.718Z,5.43
2022-11-15T12:55:35.405Z,6.17
2022-11-15T12:58:47.225Z,7.07
2022-11-15T13:02:04.373Z,6.20
2022-11-15T13:06:00.407Z,6.57
2022-11-15T13:09:05.069Z,4.03
2022-11-15T13:12:14.818Z,5.80
2022-11-15T13:15:42.540Z,5.47
2022-11-15T13:18:56.792Z,6.50
2022-11-15T13:22:19.305Z,8.47
2022-11-15T13:26:09.672Z,6.10
2022-11-15T13:29:20.294Z,15.23
2022-11-15T13:32:24.605Z,5.83
2022-11-15T13:35:32.065Z,5.63
2022-11-15T13:38:40.022Z,4.50
2022-11-15T13:41:51.777Z,6.57
2022-11-15T13:45:01.169Z,4.80
2022-11-15T13:48:07.480Z,3.73
2022-11-15T13:51:21.587Z,6.50
2022-11-15T13:54:31.992Z,3.20
2022-11-15T13:57:46.271Z,6.53
2022-11-15T14:00:49.951Z,4.77
2022-11-15T14:03:59.169Z,6.00
2022-11-15T14:07:04.719Z,7.67
2022-11-15T14:10:33.549Z,7.23
2022-11-15T14:13:37.854Z,5.30
2022-11-15T14:16:44.240Z,5.03
2022-11-15T14:19:47.824Z,4.53
2022-11-15T14:22:56.429Z,4.93
2022-11-15T14:26:03.555Z,5.63
2022-11-15T14:29:27.900Z,8.70
2022-11-15T14:32:44.455Z,6.20
2022-11-15T14:35:48.594Z,5.10
2022-11-15T14:38:52.237Z,5.80
2022-11-15T14:41:57.353Z,7.83
2022-11-15T14:45:00.973Z,7.60
2022-11-15T14:48:04.908Z,6.50
2022-11-15T14:51:15.742Z,5.93
2022-11-15T14:54:19.374Z,8.90
2022-11-15T14:57:24.678Z,11.40
2022-11-15T15:00:33.844Z,33.70
2022-11-15T15:03:38.737Z,29.07
2022-11-15T15:06:42.395Z,27.00
2022-11-15T15:09:47.578Z,22.60
2022-11-15T15:12:52.645Z,5.60
2022-11-15T15:15:56.266Z,11.27
2022-11-15T15:18:59.824Z,8.17
2022-11-15T15:22:03.564Z,9.40
2022-11-15T15:25:23.329Z,4.60
2022-11-15T15:28:33.082Z,7.47
2022-11-15T15:31:38.210Z,9.23
2022-11-15T15:34:41.880Z,6.30
2022-11-15T15:37:49.070Z,5.27
2022-11-15T15:40:52.669Z,6.10
2022-11-15T15:43:57.694Z,6.00
2022-11-15T15:47:01.233Z,5.93
2022-11-15T15:50:06.305Z,6.87
2022-11-15T15:53:11.409Z,7.40
2022-11-15T15:56:15.375Z,9.80
2022-11-15T15:59:20.484Z,6.17
2022-11-15T16:02:24.039Z,20.80
2022-11-15T16:05:27.653Z,6.83
2022-11-15T16:08:47.502Z,6.77
2022-11-15T16:11:55.720Z,5.80
2022-11-15T16:15:01.329Z,7.30
2022-11-15T16:18:08.872Z,6.27
2022-11-15T16:21:12.915Z,10.63
2022-11-15T16:24:16.603Z,14.43
2022-11-15T16:27:22.593Z,10.87
2022-11-15T16:30:27.616Z,12.97
2022-11-15T16:33:31.747Z,49.10
2022-11-15T16:36:37.535Z,16.07
2022-11-15T16:39:41.114Z,12.60
2022-11-15T16:42:44.654Z,11.47
2022-11-15T16:45:51.757Z,13.23
2022-11-15T16:48:56.465Z,10.90
2022-11-15T16:52:00.030Z,11.87
2022-11-15T16:55:03.779Z,10.40
2022-11-15T16:58:07.405Z,12.07
2022-11-15T17:01:21.287Z,18.10
2022-11-15T17:04:25.986Z,11.87
2022-11-15T17:07:29.999Z,21.37
2022-11-15T17:10:33.624Z,15.53
2022-11-15T17:13:38.159Z,12.33
2022-11-15T17:16:44.556Z,16.07
2022-11-15T17:19:48.126Z,22.30
2022-11-15T17:22:52.776Z,15.63
2022-11-15T17:26:17.623Z,28.47
2022-11-15T17:29:24.602Z,28.17
2022-11-15T17:32:29.541Z,23.50
2022-11-15T17:35:35.970Z,33.67
2022-11-15T17:38:39.634Z,23.73
2022-11-15T17:41:43.250Z,16.10
2022-11-15T17:44:46.935Z,25.33
2022-11-15T17:47:52.031Z,24.20
2022-11-15T17:51:01.028Z,16.37
2022-11-15T17:54:04.766Z,30.60
2022-11-15T17:57:08.366Z,35.07
2022-11-15T18:00:14.060Z,29.30
2022-11-15T18:03:19.907Z,13.00
2022-11-15T18:06:26.015Z,21.70
2022-11-15T18:09:29.878Z,27.37
2022-11-15T18:12:33.494Z,18.97
2022-11-15T18:15:37.427Z,19.03
2022-11-15T18:18:43.078Z,10.83
2022-11-15T18:22:01.394Z,12.47
2022-11-15T18:25:05.542Z,9.23
2022-11-15T18:28:09.363Z,9.43
2022-11-15T18:31:18.301Z,23.77
2022-11-15T18:34:24.727Z,14.93
2022-11-15T18:37:28.323Z,35.03
2022-11-15T18:40:32.259Z,45.10
2022-11-15T18:43:36.515Z,33.03
2022-11-15T18:46:40.294Z,15.17
2022-11-15T18:49:45.996Z,22.13
2022-11-15T18:52:49.593Z,21.03
2022-11-15T18:55:53.335Z,22.63
2022-11-15T18:58:59.522Z,21.37
2022-11-15T19:02:03.105Z,16.40
2022-11-15T19:05:09.272Z,11.37
2022-11-15T19:08:12.821Z,11.63
2022-11-15T19:11:19.723Z,18.97
2022-11-15T19:14:26.233Z,34.13
2022-11-15T19:17:29.770Z,23.63
2022-11-15T19:20:37.339Z,19.03
2022-11-15T19:23:43.438Z,15.47
2022-11-15T19:26:47.148Z,24.30
2022-11-15T19:29:50.840Z,18.93
2022-11-15T19:32:54.493Z,53.00
2022-11-15T19:36:03.927Z,18.03
2022-11-15T19:39:13.135Z,17.13
2022-11-15T19:42:16.980Z,11.33
2022-11-15T19:45:24.702Z,14.67
2022-11-15T19:48:29.207Z,14.10
2022-11-15T19:51:34.535Z,26.10
2022-11-15T19:54:38.212Z,13.13
2022-11-15T19:57:41.794Z,12.00
2022-11-15T20:00:45.530Z,21.30
2022-11-15T20:03:50.925Z,21.07
2022-11-15T20:06:55.942Z,20.80
2022-11-15T20:10:00.340Z,11.07
2022-11-15T20:13:03.931Z,16.17
2022-11-15T20:16:08.409Z,12.93
2022-11-15T20:19:13.110Z,11.53
2022-11-15T20:22:18.012Z,9.07
2022-11-15T20:25:21.654Z,13.10
2022-11-15T20:28:28.276Z,8.97
2022-11-15T20:31:32.657Z,7.77
2022-11-15T20:34:36.507Z,5.90
2022-11-15T20:37:42.035Z,7.00
2022-11-15T20:40:48.089Z,7.93
2022-11-15T20:43:51.796Z,7.90
2022-11-15T20:46:55.325Z,7.67
2022-11-15T20:50:14.966Z,8.27
2022-11-15T20:53:26.964Z,7.43
2022-11-15T20:56:34.035Z,8.63
2022-11-15T20:59:37.595Z,7.70
2022-11-15T21:02:41.250Z,7.90
2022-11-15T21:05:46.024Z,7.10
2022-11-15T21:09:10.075Z,10.20
2022-11-15T21:12:15.026Z,10.03
2022-11-15T21:15:18.962Z,7.50
2022-11-15T21:18:23.045Z,9.20
2022-11-15T21:21:26.722Z,5.20
2022-11-15T21:24:31.773Z,7.27
2022-11-15T21:27:35.502Z,8.30
2022-11-15T21:30:40.061Z,5.93
2022-11-15T21:33:43.782Z,6.97
2022-11-15T21:36:47.357Z,8.53
2022-11-15T21:39:52.490Z,9.37
2022-11-15T21:42:56.068Z,6.43
2022-11-15T21:46:02.270Z,5.90
2022-11-15T21:49:06.888Z,7.57
2022-11-15T21:52:10.515Z,6.47
2022-11-15T21:55:15.500Z,6.67
2022-11-15T21:58:19.635Z,7.17
2022-11-15T22:01:42.231Z,10.70
2022-11-15T22:04:46.002Z,7.60
2022-11-15T22:07:49.634Z,8.77
2022-11-15T22:10:56.811Z,7.03
2022-11-15T22:14:00.948Z,6.57
2022-11-15T22:17:04.504Z,6.70
2022-11-15T22:20:29.962Z,7.70
2022-11-15T22:23:35.366Z,8.20
2022-11-15T22:26:40.428Z,10.60
2022-11-15T22:29:44.174Z,9.60
2022-11-15T22:32:47.971Z,6.47
2022-11-15T22:35:51.784Z,9.63
2022-11-15T22:38:55.438Z,5.30
2022-11-15T22:42:00.577Z,7.90
2022-11-15T22:45:04.429Z,7.53
2022-11-15T22:48:08.155Z,6.73
2022-11-15T22:51:11.910Z,6.93
2022-11-15T22:54:15.596Z,7.43
2022-11-15T22:57:20.738Z,7.07
2022-11-15T23:00:24.566Z,5.97
2022-11-15T23:03:30.734Z,7.03
2022-11-15T23:06:34.515Z,6.57
2022-11-15T23:09:38.290Z,9.57
2022-11-15T23:13:12.581Z,7.90
2022-11-15T23:16:26.194Z,7.57
2022-11-15T23:19:30.015Z,5.17
2022-11-15T23:22:48.603Z,8.43
2022-11-15T23:25:59.942Z,6.27
2022-11-15T23:29:05.998Z,5.93
2022-11-15T23:32:28.105Z,5.97
2022-11-15T23:35:31.709Z,5.50
2022-11-15T23:38:37.278Z,4.57
2022-11-15T23:41:40.953Z,5.80
2022-11-15T23:44:46.044Z,5.87
2022-11-15T23:47:49.748Z,6.03
2022-11-15T23:50:53.393Z,6.07
2022-11-15T23:53:57.061Z,5.57
2022-11-15T23:57:00.840Z,5.40
